createdAt,value
2023-03-02T00:01:48.674Z,3.62
2023-03-02T00:04:28.670Z,3.63
2023-03-02T00:07:02.760Z,3.65
2023-03-02T00:09:33.219Z,3.67
2023-03-02T00:12:03.360Z,3.69
2023-03-02T00:14:35.792Z,3.72
2023-03-02T00:17:05.683Z,3.73
2023-03-02T00:19:37.373Z,3.75
2023-03-02T00:22:09.472Z,3.75
2023-03-02T00:24:43.789Z,3.77
2023-03-02T00:27:13.618Z,3.73
2023-03-02T00:29:46.345Z,3.71
2023-03-02T00:32:18.238Z,3.66
2023-03-02T00:34:48.016Z,3.62
2023-03-02T00:37:17.746Z,3.60
2023-03-02T00:39:47.963Z,3.56
2023-03-02T00:42:17.722Z,3.55
2023-03-02T00:44:50.165Z,3.54
2023-03-02T00:47:19.922Z,3.49
2023-03-02T00:49:49.718Z,3.47
2023-03-02T00:52:19.807Z,3.45
2023-03-02T00:54:49.588Z,3.44
2023-03-02T00:57:19.710Z,3.45
2023-03-02T00:59:52.092Z,3.45
2023-03-02T01:02:21.938Z,3.46
2023-03-02T01:04:53.284Z,3.44
2023-03-02T01:07:26.361Z,3.46
2023-03-02T01:09:56.104Z,3.51
2023-03-02T01:12:25.898Z,3.53
2023-03-02T01:14:58.719Z,3.54
2023-03-02T01:17:28.482Z,3.55
2023-03-02T01:19:58.321Z,3.56
2023-03-02T01:22:28.100Z,3.55
2023-03-02T01:24:58.919Z,3.56
2023-03-02T01:27:28.964Z,3.57
2023-03-02T01:30:01.332Z,3.60
2023-03-02T01:32:31.120Z,3.63
2023-03-02T01:35:00.947Z,3.66
2023-03-02T01:37:30.739Z,3.66
2023-03-02T01:40:02.763Z,3.69
2023-03-02T01:42:37.455Z,3.68
2023-03-02T01:45:37.066Z,3.67
2023-03-02T01:48:13.228Z,3.64
2023-03-02T01:50:43.478Z,3.62
2023-03-02T01:53:13.786Z,3.61
2023-03-02T01:55:44.293Z,3.59
2023-03-02T01:58:16.415Z,3.59
2023-03-02T02:00:47.896Z,3.57
2023-03-02T02:03:24.622Z,3.56
2023-03-02T02:06:03.241Z,3.56
2023-03-02T02:08:33.974Z,3.55
2023-03-02T02:11:09.433Z,3.54
2023-03-02T02:13:39.277Z,3.52
2023-03-02T02:16:10.047Z,3.50
2023-03-02T02:18:43.919Z,3.49
2023-03-02T02:21:14.397Z,3.49
2023-03-02T02:23:52.847Z,3.41
2023-03-02T02:26:30.892Z,3.32
2023-03-02T02:29:08.036Z,3.29
2023-03-02T02:31:43.318Z,3.29
2023-03-02T02:34:22.939Z,3.25
2023-03-02T02:36:56.971Z,3.20
2023-03-02T02:39:31.429Z,3.16
2023-03-02T02:42:55.088Z,3.09
2023-03-02T02:46:02.376Z,3.01
2023-03-02T02:49:00.913Z,2.93
2023-03-02T03:07:42.094Z,2.58
2023-03-02T03:17:12.774Z,2.49
2023-03-02T03:19:47.558Z,2.51
2023-03-02T03:22:36.784Z,2.53
2023-03-02T03:28:41.203Z,2.54
2023-03-02T03:31:11.001Z,2.57
2023-03-02T03:33:43.472Z,2.63
2023-03-02T03:36:13.369Z,2.68
2023-03-02T03:38:43.182Z,2.73
2023-03-02T03:41:13.031Z,2.77
2023-03-02T03:43:42.806Z,2.81
2023-03-02T03:46:18.093Z,2.85
2023-03-02T03:49:14.307Z,2.85
2023-03-02T03:52:07.220Z,2.84
2023-03-02T03:54:50.097Z,2.80
2023-03-02T03:57:27.354Z,2.84
2023-03-02T04:00:06.207Z,2.87
2023-03-02T04:12:51.089Z,2.75
2023-03-02T04:15:20.844Z,2.73
2023-03-02T04:17:50.933Z,2.68
2023-03-02T04:20:21.952Z,2.66
2023-03-02T04:22:54.027Z,2.64
2023-03-02T04:25:26.183Z,2.56
2023-03-02T04:27:58.728Z,2.54
2023-03-02T04:30:32.035Z,2.54
2023-03-02T04:33:01.817Z,2.57
2023-03-02T04:35:32.075Z,2.60
2023-03-02T04:38:03.382Z,2.60
2023-03-02T04:41:01.214Z,2.59
2023-03-02T04:51:24.328Z,2.33
2023-03-02T04:53:54.388Z,2.33
2023-03-02T04:56:25.139Z,2.32
2023-03-02T04:59:34.606Z,2.33
2023-03-02T05:02:06.201Z,2.31
2023-03-02T05:04:37.374Z,2.30
2023-03-02T05:07:09.870Z,2.31
2023-03-02T05:09:42.581Z,2.33
2023-03-02T05:12:15.235Z,2.39
2023-03-02T05:14:45.863Z,2.42
2023-03-02T05:17:28.781Z,2.47
2023-03-02T05:20:10.388Z,2.49
2023-03-02T05:22:43.028Z,2.51
2023-03-02T05:25:13.198Z,2.56
2023-03-02T05:27:43.059Z,2.58
2023-03-02T05:30:14.694Z,2.62
2023-03-02T05:32:45.243Z,2.61
2023-03-02T05:35:15.336Z,2.58
2023-03-02T05:37:47.756Z,2.58
2023-03-02T05:40:20.076Z,2.55
2023-03-02T05:42:50.821Z,2.56
2023-03-02T05:45:23.415Z,2.55
2023-03-02T05:47:54.546Z,2.57
2023-03-02T05:50:24.829Z,2.57
2023-03-02T05:52:58.371Z,2.59
2023-03-02T05:55:28.125Z,2.62
2023-03-02T05:57:58.428Z,2.64
2023-03-02T06:00:28.414Z,2.67
2023-03-02T06:02:59.258Z,2.69
2023-03-02T06:05:29.108Z,2.72
2023-03-02T06:08:03.553Z,2.76
2023-03-02T06:10:33.442Z,2.78
2023-03-02T06:13:06.451Z,2.78
2023-03-02T06:19:38.953Z,2.84
2023-03-02T06:32:44.620Z,2.88
2023-03-02T06:35:17.525Z,2.81
2023-03-02T06:37:47.418Z,2.75
2023-03-02T06:40:17.322Z,2.73
2023-03-02T06:42:49.929Z,2.74
2023-03-02T06:45:19.979Z,2.75
2023-03-02T06:47:49.799Z,2.77
2023-03-02T06:50:19.737Z,2.78
2023-03-02T06:52:49.545Z,2.76
2023-03-02T06:55:19.523Z,2.77
2023-03-02T06:57:52.130Z,2.76
2023-03-02T07:00:26.248Z,2.80
2023-03-02T07:02:56.844Z,2.79
2023-03-02T07:05:28.267Z,2.74
2023-03-02T07:08:01.036Z,2.71
2023-03-02T07:10:31.247Z,2.71
2023-03-02T07:13:03.861Z,2.72
2023-03-02T07:15:33.865Z,2.76
2023-03-02T07:18:06.755Z,2.79
2023-03-02T07:20:40.063Z,2.80
2023-03-02T07:23:10.244Z,2.79
2023-03-02T07:25:40.032Z,2.81
2023-03-02T07:28:12.580Z,2.80
2023-03-02T07:30:45.355Z,2.79
2023-03-02T07:33:17.310Z,2.80
2023-03-02T07:35:47.313Z,2.79
2023-03-02T07:38:17.349Z,2.80
2023-03-02T07:40:47.707Z,2.79
2023-03-02T07:43:20.492Z,2.80
2023-03-02T07:45:53.145Z,2.78
2023-03-02T07:48:23.508Z,2.75
2023-03-02T07:50:53.302Z,2.77
2023-03-02T07:53:23.087Z,2.77
2023-03-02T07:55:52.848Z,2.77
2023-03-02T07:58:25.370Z,2.77
2023-03-02T08:00:55.168Z,2.79
2023-03-02T08:03:24.986Z,2.80
2023-03-02T08:05:54.830Z,2.80
2023-03-02T08:08:24.611Z,2.78
2023-03-02T08:10:54.440Z,2.77
2023-03-02T08:13:26.807Z,2.77
2023-03-02T08:16:02.864Z,2.78
2023-03-02T08:18:32.782Z,2.77
2023-03-02T08:21:02.776Z,2.79
2023-03-02T08:23:32.922Z,2.78
2023-03-02T08:26:02.755Z,2.76
2023-03-02T08:28:35.212Z,2.78
2023-03-02T08:31:06.736Z,2.80
2023-03-02T08:33:36.858Z,2.80
2023-03-02T08:36:09.322Z,2.77
2023-03-02T08:38:39.318Z,2.75
2023-03-02T08:41:11.232Z,2.77
2023-03-02T08:43:44.208Z,2.77
2023-03-02T08:46:15.716Z,2.80
2023-03-02T08:48:45.640Z,2.84
2023-03-02T08:51:17.291Z,2.82
2023-03-02T08:53:50.541Z,2.78
2023-03-02T08:56:22.270Z,2.80
2023-03-02T08:58:55.523Z,2.86
2023-03-02T09:01:26.828Z,2.91
2023-03-02T09:03:57.739Z,2.99
2023-03-02T09:06:27.610Z,3.07
2023-03-02T09:08:57.421Z,3.13
2023-03-02T09:11:27.611Z,3.19
2023-03-02T09:14:00.016Z,3.28
2023-03-02T09:16:29.884Z,3.40
2023-03-02T09:18:59.964Z,3.47
2023-03-02T09:21:29.756Z,3.54
2023-03-02T09:23:59.806Z,3.62
2023-03-02T09:26:30.256Z,3.73
2023-03-02T09:29:02.668Z,3.77
2023-03-02T09:31:32.981Z,3.85
2023-03-02T09:34:03.138Z,3.87
2023-03-02T09:36:32.993Z,3.87
2023-03-02T09:39:08.600Z,3.89
2023-03-02T09:42:08.818Z,3.98
2023-03-02T09:45:16.893Z,4.05
2023-03-02T09:47:53.535Z,4.09
2023-03-02T09:50:34.879Z,4.10
2023-03-02T09:53:37.280Z,4.03
2023-03-02T09:56:15.607Z,3.94
2023-03-02T09:58:51.438Z,3.96
2023-03-02T10:01:35.434Z,4.00
2023-03-02T10:04:14.859Z,4.05
2023-03-02T10:06:44.994Z,4.11
2023-03-02T10:09:15.056Z,4.16
2023-03-02T10:11:58.954Z,4.24
2023-03-02T10:14:33.711Z,4.21
2023-03-02T10:17:23.439Z,4.12
2023-03-02T10:19:59.820Z,4.10
2023-03-02T10:22:33.412Z,4.08
2023-03-02T10:25:17.342Z,4.06
2023-03-02T10:27:53.285Z,4.01
2023-03-02T10:30:31.026Z,4.01
2023-03-02T10:33:12.309Z,4.02
2023-03-02T10:35:48.050Z,3.97
2023-03-02T10:38:22.970Z,4.00
2023-03-02T10:40:59.933Z,3.99
2023-03-02T10:43:34.964Z,3.98
2023-03-02T10:46:07.728Z,4.01
2023-03-02T10:48:51.430Z,4.10
2023-03-02T10:51:29.730Z,4.12
2023-03-02T10:54:07.304Z,4.09
2023-03-02T10:56:37.347Z,4.06
2023-03-02T10:59:30.435Z,4.07
2023-03-02T11:02:03.892Z,4.13
2023-03-02T11:04:36.407Z,4.14
2023-03-02T11:07:13.184Z,4.12
2023-03-02T11:09:43.389Z,4.10
2023-03-02T11:12:18.929Z,4.12
2023-03-02T11:14:48.828Z,4.22
2023-03-02T11:17:32.948Z,4.32
2023-03-02T11:20:07.120Z,4.31
2023-03-02T11:22:41.557Z,4.31
2023-03-02T11:25:23.491Z,4.33
2023-03-02T11:28:05.540Z,4.41
2023-03-02T11:30:39.233Z,4.46
2023-03-02T11:33:16.499Z,4.55
2023-03-02T11:35:55.729Z,4.57
2023-03-02T11:38:29.274Z,4.54
2023-03-02T11:41:03.421Z,4.54
2023-03-02T11:43:33.349Z,4.54
2023-03-02T11:46:13.917Z,4.57
2023-03-02T11:48:52.281Z,4.61
2023-03-02T11:51:27.522Z,4.63
2023-03-02T11:54:01.344Z,4.63
2023-03-02T11:56:34.351Z,4.62
2023-03-02T11:59:08.909Z,4.57
2023-03-02T12:01:40.472Z,4.52
2023-03-02T12:04:12.926Z,4.50
2023-03-02T12:06:46.331Z,4.53
2023-03-02T12:09:36.117Z,4.58
2023-03-02T12:12:35.470Z,4.60
2023-03-02T12:15:05.869Z,4.62
2023-03-02T12:17:39.819Z,4.65
2023-03-02T12:20:27.450Z,4.71
2023-03-02T12:23:10.878Z,4.73
2023-03-02T12:25:49.751Z,4.75
2023-03-02T12:28:33.451Z,4.77
2023-03-02T12:31:13.455Z,4.82
2023-03-02T12:33:50.261Z,4.87
2023-03-02T12:36:28.646Z,4.91
2023-03-02T12:39:16.651Z,4.93
2023-03-02T12:42:06.395Z,4.95
2023-03-02T12:44:49.468Z,4.97
2023-03-02T12:47:27.586Z,5.01
2023-03-02T12:50:00.842Z,5.03
2023-03-02T12:52:32.879Z,5.03
2023-03-02T12:55:08.837Z,5.03
2023-03-02T12:57:41.415Z,5.05
2023-03-02T13:00:19.486Z,5.09
2023-03-02T13:02:51.208Z,5.21
2023-03-02T13:05:23.310Z,5.29
2023-03-02T13:08:01.391Z,5.37
2023-03-02T13:10:40.029Z,5.43
2023-03-02T13:13:19.448Z,5.42
2023-03-02T13:15:53.990Z,5.46
2023-03-02T13:18:25.040Z,5.47
2023-03-02T13:20:55.978Z,5.39
2023-03-02T13:23:26.536Z,5.40
2023-03-02T13:26:01.121Z,5.46
2023-03-02T13:28:32.426Z,5.45
2023-03-02T13:31:04.339Z,5.39
2023-03-02T13:33:36.229Z,5.39
2023-03-02T13:36:06.248Z,5.43
2023-03-02T13:38:40.629Z,5.39
2023-03-02T13:41:23.761Z,5.36
2023-03-02T13:43:54.208Z,5.31
2023-03-02T13:46:36.522Z,5.30
2023-03-02T13:49:11.434Z,5.27
2023-03-02T13:51:44.000Z,5.21
2023-03-02T13:54:24.507Z,5.23
2023-03-02T13:56:57.136Z,5.25
2023-03-02T13:59:27.153Z,5.26
2023-03-02T14:01:58.170Z,5.16
2023-03-02T14:04:28.212Z,5.18
2023-03-02T14:06:58.443Z,5.25
2023-03-02T14:09:28.770Z,5.31
2023-03-02T14:12:01.762Z,5.33
2023-03-02T14:14:35.840Z,5.34
2023-03-02T14:17:19.699Z,5.33
2023-03-02T14:19:53.101Z,5.29
2023-03-02T14:22:23.328Z,5.29
2023-03-02T14:24:53.772Z,5.31
2023-03-02T14:27:31.385Z,5.27
2023-03-02T14:30:01.821Z,5.24
2023-03-02T14:32:31.827Z,5.18
2023-03-02T14:35:02.015Z,5.10
2023-03-02T14:37:32.641Z,5.08
2023-03-02T14:40:02.859Z,5.10
2023-03-02T14:42:35.508Z,5.11
2023-03-02T14:45:05.572Z,5.12
2023-03-02T14:47:37.535Z,5.08
2023-03-02T14:50:08.167Z,5.02
2023-03-02T14:52:43.811Z,5.03
2023-03-02T14:55:19.472Z,5.05
2023-03-02T14:57:56.254Z,5.10
2023-03-02T15:00:26.648Z,5.09
2023-03-02T15:02:56.864Z,5.07
2023-03-02T15:05:35.320Z,5.02
2023-03-02T15:08:05.402Z,4.97
2023-03-02T15:10:37.035Z,4.95
2023-03-02T15:13:09.529Z,4.95
2023-03-02T15:15:39.587Z,5.02
2023-03-02T15:18:09.765Z,5.01
2023-03-02T15:20:40.361Z,4.98
2023-03-02T15:23:10.524Z,4.98
2023-03-02T15:25:52.471Z,5.00
2023-03-02T15:28:41.845Z,5.04
2023-03-02T15:31:21.445Z,5.04
2023-03-02T15:33:52.263Z,5.01
2023-03-02T15:36:26.645Z,5.04
2023-03-02T15:39:04.216Z,5.03
2023-03-02T15:41:34.567Z,5.01
2023-03-02T15:44:48.469Z,5.01
2023-03-02T15:47:18.477Z,5.04
2023-03-02T15:49:48.574Z,5.08
2023-03-02T15:52:20.167Z,5.12
2023-03-02T15:54:50.234Z,5.16
2023-03-02T15:57:24.058Z,5.18
2023-03-02T15:59:56.632Z,5.18
2023-03-02T16:02:33.329Z,5.20
2023-03-02T16:05:18.238Z,5.23
2023-03-02T16:07:48.381Z,5.21
2023-03-02T16:10:19.877Z,5.19
2023-03-02T16:12:49.907Z,5.19
2023-03-02T16:15:22.324Z,5.16
2023-03-02T16:17:52.212Z,5.15
2023-03-02T16:20:22.240Z,5.15
2023-03-02T16:22:52.038Z,5.09
2023-03-02T16:25:21.856Z,5.07
2023-03-02T16:27:51.664Z,5.03
2023-03-02T16:30:24.276Z,4.99
2023-03-02T16:32:54.087Z,4.95
2023-03-02T16:35:23.958Z,4.95
2023-03-02T16:37:53.747Z,4.96
2023-03-02T16:40:24.480Z,4.93
2023-03-02T16:42:54.336Z,4.92
2023-03-02T16:45:27.055Z,4.93
2023-03-02T16:47:57.069Z,4.93
2023-03-02T16:50:26.983Z,4.95
2023-03-02T16:52:56.817Z,4.95
2023-03-02T16:55:26.900Z,4.94
2023-03-02T16:57:56.743Z,4.91
2023-03-02T17:00:31.383Z,4.88
2023-03-02T17:03:01.458Z,4.86
2023-03-02T17:05:31.302Z,4.84
2023-03-02T17:08:02.885Z,4.81
2023-03-02T17:10:32.678Z,4.77
2023-03-02T17:13:02.481Z,4.75
2023-03-02T17:15:35.229Z,4.74
2023-03-02T17:18:05.654Z,4.73
2023-03-02T17:20:35.533Z,4.72
2023-03-02T17:23:06.161Z,4.72
2023-03-02T17:25:35.979Z,4.67
2023-03-02T17:28:06.072Z,4.64
2023-03-02T17:30:38.501Z,4.61
2023-03-02T17:33:08.387Z,4.57
2023-03-02T17:35:38.627Z,4.55
2023-03-02T17:38:09.226Z,4.54
2023-03-02T17:40:39.178Z,4.54
2023-03-02T17:43:09.233Z,4.52
2023-03-02T17:45:42.439Z,4.50
2023-03-02T17:48:12.372Z,4.47
2023-03-02T17:50:42.609Z,4.44
2023-03-02T17:53:12.491Z,4.42
2023-03-02T17:55:42.437Z,4.40
2023-03-02T17:58:12.563Z,4.40
2023-03-02T18:01:40.469Z,4.41
2023-03-02T18:03:45.313Z,4.39
2023-03-02T18:06:20.331Z,4.39
2023-03-02T18:08:54.563Z,4.41
2023-03-02T18:11:26.712Z,4.44
2023-03-02T18:13:59.088Z,4.44
2023-03-02T18:16:34.150Z,4.47
2023-03-02T18:19:05.441Z,4.46
2023-03-02T18:21:36.715Z,4.46
2023-03-02T18:24:08.088Z,4.46
2023-03-02T18:26:38.333Z,4.44
2023-03-02T18:29:08.987Z,4.47
2023-03-02T18:31:41.802Z,4.47
2023-03-02T18:34:13.711Z,4.50
2023-03-02T18:36:44.043Z,4.50
2023-03-02T18:39:14.025Z,4.50
2023-03-02T18:41:56.023Z,4.53
2023-03-02T18:44:28.502Z,4.54
2023-03-02T18:47:04.068Z,4.56
2023-03-02T18:49:46.666Z,4.62
2023-03-02T18:52:40.861Z,4.62
2023-03-02T18:55:42.633Z,4.57
2023-03-02T18:58:25.992Z,4.51
2023-03-02T19:00:59.903Z,4.47
2023-03-02T19:03:53.291Z,4.37
2023-03-02T19:06:43.107Z,4.28
2023-03-02T19:09:16.565Z,4.23
2023-03-02T19:11:46.666Z,4.19
2023-03-02T19:14:24.989Z,4.15
2023-03-02T19:16:59.251Z,4.12
2023-03-02T19:19:38.599Z,4.10
2023-03-02T19:22:11.424Z,4.05
2023-03-02T19:24:44.130Z,4.05
2023-03-02T19:27:21.278Z,4.01
2023-03-02T19:29:54.417Z,4.02
2023-03-02T19:32:27.311Z,4.05
2023-03-02T19:37:48.437Z,4.07
2023-03-02T19:40:22.568Z,4.01
2023-03-02T19:42:56.183Z,3.98
2023-03-02T19:45:33.082Z,3.94
2023-03-02T19:48:15.690Z,3.90
2023-03-02T19:50:57.037Z,3.87
2023-03-02T19:53:33.498Z,3.88
2023-03-02T19:56:10.932Z,3.87
2023-03-02T19:58:47.097Z,3.82
2023-03-02T20:01:22.123Z,3.76
2023-03-02T20:03:52.833Z,3.77
2023-03-02T20:06:27.333Z,3.74
2023-03-02T20:09:00.127Z,3.74
2023-03-02T20:11:31.063Z,3.70
2023-03-02T20:14:05.733Z,3.66
2023-03-02T20:16:44.269Z,3.64
2023-03-02T20:19:15.327Z,3.64
2023-03-02T20:21:52.101Z,3.67
2023-03-02T20:24:21.878Z,3.69
2023-03-02T20:26:51.941Z,3.73
2023-03-02T20:29:22.471Z,3.73
2023-03-02T20:31:53.119Z,3.74
2023-03-02T20:34:23.069Z,3.73
2023-03-02T20:36:55.666Z,3.72
2023-03-02T20:39:28.716Z,3.69
2023-03-02T20:41:59.633Z,3.72
2023-03-02T20:44:31.275Z,3.74
2023-03-02T20:47:03.654Z,3.75
2023-03-02T20:49:34.032Z,3.78
2023-03-02T20:52:07.259Z,3.82
2023-03-02T20:54:40.001Z,3.85
2023-03-02T20:57:10.906Z,3.87
2023-03-02T20:59:41.136Z,3.87
2023-03-02T21:02:14.346Z,3.89
2023-03-02T21:04:44.569Z,3.88
2023-03-02T21:07:18.085Z,3.90
2023-03-02T21:09:48.149Z,3.92
2023-03-02T21:12:18.217Z,3.93
2023-03-02T21:14:48.267Z,3.92
2023-03-02T21:17:19.815Z,3.90
2023-03-02T21:19:51.327Z,3.89
2023-03-02T21:22:27.595Z,3.88
2023-03-02T21:24:58.924Z,3.87
2023-03-02T21:27:32.891Z,3.88
2023-03-02T21:30:04.083Z,3.89
2023-03-02T21:32:33.985Z,3.89
2023-03-02T21:35:04.018Z,3.89
2023-03-02T21:37:40.439Z,3.88
2023-03-02T21:40:11.831Z,3.87
2023-03-02T21:42:41.670Z,3.87
2023-03-02T21:45:12.594Z,3.86
2023-03-02T21:47:44.734Z,3.85
2023-03-02T21:50:17.723Z,3.82
2023-03-02T21:52:50.142Z,3.79
2023-03-02T21:55:20.357Z,3.75
2023-03-02T21:57:50.836Z,3.72
2023-03-02T22:00:23.563Z,3.66
2023-03-02T22:02:53.552Z,3.64
2023-03-02T22:05:24.047Z,3.60
2023-03-02T22:07:57.618Z,3.56
2023-03-02T22:10:32.979Z,3.52
2023-03-02T22:13:17.625Z,3.46
2023-03-02T22:15:48.201Z,3.42
2023-03-02T22:18:19.985Z,3.39
2023-03-02T22:20:52.753Z,3.35
2023-03-02T22:23:27.608Z,3.31
2023-03-02T22:26:03.894Z,3.29
2023-03-02T22:28:39.397Z,3.27
2023-03-02T22:31:19.255Z,3.24
2023-03-02T22:33:49.129Z,3.22
2023-03-02T22:36:24.184Z,3.17
2023-03-02T22:39:04.016Z,3.13
2023-03-02T22:41:33.824Z,3.09
2023-03-02T22:44:03.629Z,3.06
2023-03-02T22:46:34.999Z,3.02
2023-03-02T22:49:05.247Z,3.00
2023-03-02T22:51:37.219Z,2.96
2023-03-02T22:54:23.074Z,2.93
2023-03-02T22:56:57.118Z,2.90
2023-03-02T22:59:28.410Z,2.90
2023-03-02T23:02:01.699Z,2.85
2023-03-02T23:04:34.523Z,2.83
2023-03-02T23:07:11.588Z,2.80
2023-03-02T23:09:44.014Z,2.78
2023-03-02T23:12:21.190Z,2.79
2023-03-02T23:14:52.566Z,2.76
2023-03-02T23:17:33.742Z,2.77
2023-03-02T23:20:06.821Z,2.74
2023-03-02T23:22:37.288Z,2.74
2023-03-02T23:25:11.667Z,2.74
2023-03-02T23:27:41.556Z,2.71
2023-03-02T23:30:12.874Z,2.69
2023-03-02T23:32:42.764Z,2.68
2023-03-02T23:35:13.101Z,2.66
2023-03-02T23:37:42.995Z,2.64
2023-03-02T23:40:17.006Z,2.63
2023-03-02T23:42:46.766Z,2.57
2023-03-02T23:45:16.764Z,2.52
2023-03-02T23:47:47.379Z,2.51
2023-03-02T23:50:17.488Z,2.47
2023-03-02T23:52:47.550Z,2.48
2023-03-02T23:55:20.055Z,2.45
2023-03-02T23:57:49.926Z,2.45
